createdAt,value
2019-03-18T00:00:37.792Z,5.85
2019-03-18T00:03:09.149Z,5.86
2019-03-18T00:05:40.568Z,5.86
2019-03-18T00:08:12.859Z,5.85
2019-03-18T00:10:44.146Z,5.83
2019-03-18T00:13:15.376Z,5.83
2019-03-18T00:15:46.696Z,5.83
2019-03-18T00:18:18.017Z,5.82
2019-03-18T00:20:49.369Z,5.82
2019-03-18T00:23:20.984Z,5.79
2019-03-18T00:25:52.540Z,5.77
2019-03-18T00:28:23.869Z,5.76
2019-03-18T00:30:55.241Z,5.72
2019-03-18T00:33:26.547Z,5.69
2019-03-18T00:35:57.858Z,5.64
2019-03-18T00:38:29.257Z,5.63
2019-03-18T00:41:00.478Z,5.62
2019-03-18T00:43:31.720Z,5.60
2019-03-18T00:46:02.967Z,5.60
2019-03-18T00:48:34.285Z,5.60
2019-03-18T00:51:05.586Z,5.59
2019-03-18T00:53:36.857Z,5.57
2019-03-18T00:56:08.129Z,5.57
2019-03-18T00:58:39.358Z,5.57
2019-03-18T01:01:11.745Z,5.57
2019-03-18T01:03:43.023Z,5.55
2019-03-18T01:06:14.319Z,5.56
2019-03-18T01:08:46.589Z,5.58
2019-03-18T01:11:17.909Z,5.58
2019-03-18T01:13:49.198Z,5.58
2019-03-18T01:16:20.461Z,5.58
2019-03-18T01:18:51.782Z,5.57
2019-03-18T01:21:24.087Z,5.57
2019-03-18T01:23:55.361Z,5.55
2019-03-18T01:26:26.841Z,5.55
2019-03-18T01:28:58.267Z,5.54
2019-03-18T01:31:29.568Z,5.54
2019-03-18T01:34:00.959Z,5.52
2019-03-18T01:36:32.239Z,5.50
2019-03-18T01:39:04.089Z,5.49
2019-03-18T01:41:35.434Z,5.49
2019-03-18T01:44:06.800Z,5.48
2019-03-18T01:46:38.088Z,5.45
2019-03-18T01:49:09.531Z,5.44
2019-03-18T01:51:40.843Z,5.43
2019-03-18T01:54:12.210Z,5.43
2019-03-18T01:56:43.455Z,5.42
2019-03-18T01:59:14.777Z,5.42
2019-03-18T02:01:46.038Z,5.40
2019-03-18T02:04:17.227Z,5.41
2019-03-18T02:06:48.625Z,5.40
2019-03-18T02:09:19.892Z,5.39
2019-03-18T02:11:51.324Z,5.38
2019-03-18T02:14:22.592Z,5.36
2019-03-18T02:16:53.839Z,5.34
2019-03-18T02:19:25.030Z,5.32
2019-03-18T02:21:56.282Z,5.30
2019-03-18T02:24:27.707Z,5.28
2019-03-18T02:26:58.928Z,5.21
2019-03-18T02:29:30.221Z,5.14
2019-03-18T02:32:01.613Z,5.10
2019-03-18T02:34:32.835Z,5.06
2019-03-18T02:37:04.119Z,5.06
2019-03-18T02:39:35.373Z,5.04
2019-03-18T02:42:06.599Z,5.04
2019-03-18T02:44:37.914Z,5.04
2019-03-18T02:47:09.180Z,5.04
2019-03-18T02:49:40.441Z,5.03
2019-03-18T02:52:11.685Z,5.03
2019-03-18T02:54:43.786Z,5.04
2019-03-18T02:57:15.058Z,5.03
2019-03-18T02:59:46.422Z,5.03
2019-03-18T03:02:17.689Z,5.06
2019-03-18T03:04:48.974Z,5.06
2019-03-18T03:07:20.325Z,5.07
2019-03-18T03:09:51.526Z,5.08
2019-03-18T03:12:22.797Z,5.08
2019-03-18T03:14:54.000Z,5.10
2019-03-18T03:17:25.286Z,5.11
2019-03-18T03:19:56.502Z,5.11
2019-03-18T03:22:27.724Z,5.12
2019-03-18T03:24:59.072Z,5.12
2019-03-18T03:27:30.275Z,5.13
2019-03-18T03:30:01.643Z,5.13
2019-03-18T03:32:33.010Z,5.13
2019-03-18T03:35:04.573Z,5.11
2019-03-18T03:37:35.775Z,5.12
2019-03-18T03:40:07.970Z,5.09
2019-03-18T03:42:39.259Z,5.08
2019-03-18T03:45:10.422Z,5.07
2019-03-18T03:47:41.831Z,5.05
2019-03-18T03:50:13.177Z,5.04
2019-03-18T03:52:44.512Z,5.04
2019-03-18T03:55:15.745Z,5.03
2019-03-18T03:57:46.964Z,5.03
2019-03-18T04:00:18.222Z,5.02
2019-03-18T04:02:49.543Z,5.02
2019-03-18T04:05:20.822Z,5.01
2019-03-18T04:07:52.030Z,5.03
2019-03-18T04:10:23.431Z,5.04
2019-03-18T04:12:54.688Z,5.04
2019-03-18T04:15:26.014Z,5.02
2019-03-18T04:17:57.256Z,5.01
2019-03-18T04:20:28.549Z,5.01
2019-03-18T04:22:59.828Z,5.01
2019-03-18T04:25:31.896Z,5.00
2019-03-18T04:28:03.154Z,5.00
2019-03-18T04:30:34.410Z,5.01
2019-03-18T04:33:06.039Z,5.00
2019-03-18T04:35:37.456Z,5.01
2019-03-18T04:38:08.687Z,5.01
2019-03-18T04:40:39.949Z,5.04
2019-03-18T04:43:11.206Z,5.04
2019-03-18T04:45:42.396Z,5.04
2019-03-18T04:48:13.652Z,5.06
2019-03-18T04:50:44.891Z,5.07
2019-03-18T04:53:16.168Z,5.08
2019-03-18T04:55:47.518Z,5.09
2019-03-18T04:58:19.024Z,5.13
2019-03-18T05:00:50.293Z,5.15
2019-03-18T05:03:21.529Z,5.16
2019-03-18T05:05:55.999Z,5.18
2019-03-18T05:08:27.267Z,5.21
2019-03-18T05:10:58.568Z,5.23
2019-03-18T05:13:29.844Z,5.26
2019-03-18T05:16:01.170Z,5.28
2019-03-18T05:18:32.434Z,5.30
2019-03-18T05:21:03.683Z,5.32
2019-03-18T05:23:34.991Z,5.32
2019-03-18T05:26:06.363Z,5.33
2019-03-18T05:28:37.606Z,5.35
2019-03-18T05:31:09.007Z,5.31
2019-03-18T05:33:41.577Z,5.31
2019-03-18T05:36:12.877Z,5.32
2019-03-18T05:38:44.228Z,5.32
2019-03-18T05:41:15.650Z,5.33
2019-03-18T05:43:46.936Z,5.35
2019-03-18T05:46:18.180Z,5.35
2019-03-18T05:48:49.691Z,5.37
2019-03-18T05:51:20.966Z,5.37
2019-03-18T05:53:52.725Z,5.35
2019-03-18T05:56:24.057Z,5.40
2019-03-18T05:58:55.402Z,5.41
2019-03-18T06:01:26.799Z,5.42
2019-03-18T06:03:58.025Z,5.43
2019-03-18T06:06:29.298Z,5.43
2019-03-18T06:09:00.584Z,5.47
2019-03-18T06:11:32.068Z,5.47
2019-03-18T06:14:03.326Z,5.48
2019-03-18T06:16:34.694Z,5.47
2019-03-18T06:19:06.973Z,5.49
2019-03-18T06:21:38.195Z,5.49
2019-03-18T06:24:09.464Z,5.49
2019-03-18T06:26:40.759Z,5.52
2019-03-18T06:29:14.156Z,5.52
2019-03-18T06:31:46.515Z,5.54
2019-03-18T06:34:17.805Z,5.57
2019-03-18T06:36:49.066Z,5.57
2019-03-18T06:39:20.592Z,5.59
2019-03-18T06:41:51.882Z,5.61
2019-03-18T06:44:23.133Z,5.62
2019-03-18T06:46:54.464Z,5.63
2019-03-18T06:49:25.802Z,5.65
2019-03-18T06:51:57.136Z,5.64
2019-03-18T06:54:28.589Z,5.65
2019-03-18T06:57:00.015Z,5.67
2019-03-18T06:59:31.338Z,5.66
2019-03-18T07:02:02.573Z,5.68
2019-03-18T07:04:33.875Z,5.67
2019-03-18T07:07:05.065Z,5.71
2019-03-18T07:09:36.470Z,5.71
2019-03-18T07:12:07.791Z,5.72
2019-03-18T07:14:39.122Z,5.72
2019-03-18T07:17:10.445Z,5.73
2019-03-18T07:19:41.881Z,5.74
2019-03-18T07:22:13.158Z,5.74
2019-03-18T07:24:44.427Z,5.74
2019-03-18T07:27:15.733Z,5.75
2019-03-18T07:29:47.117Z,5.74
2019-03-18T07:32:18.448Z,5.75
2019-03-18T07:34:50.792Z,5.74
2019-03-18T07:37:22.035Z,5.75
2019-03-18T07:39:53.342Z,5.75
2019-03-18T07:42:24.618Z,5.75
2019-03-18T07:44:55.885Z,5.77
2019-03-18T07:47:27.081Z,5.81
2019-03-18T07:50:00.019Z,5.81
2019-03-18T07:52:31.253Z,5.84
2019-03-18T07:55:02.559Z,5.82
2019-03-18T07:57:33.907Z,5.84
2019-03-18T08:00:05.616Z,5.87
2019-03-18T08:02:37.880Z,5.87
2019-03-18T08:05:09.618Z,5.91
2019-03-18T08:07:40.963Z,5.94
2019-03-18T08:10:12.471Z,5.99
2019-03-18T08:12:43.902Z,6.05
2019-03-18T08:15:15.329Z,6.12
2019-03-18T08:17:46.667Z,6.15
2019-03-18T08:20:18.070Z,6.21
2019-03-18T08:22:49.491Z,6.26
2019-03-18T08:25:20.872Z,6.32
2019-03-18T08:27:52.246Z,6.37
2019-03-18T08:30:23.555Z,6.39
2019-03-18T08:32:55.049Z,6.40
2019-03-18T08:35:26.378Z,6.41
2019-03-18T08:37:57.705Z,6.41
2019-03-18T08:40:29.272Z,6.45
2019-03-18T08:43:02.529Z,6.47
2019-03-18T08:45:34.674Z,6.50
2019-03-18T08:48:06.239Z,6.51
2019-03-18T08:50:37.690Z,6.54
2019-03-18T08:53:09.043Z,6.58
2019-03-18T08:55:40.335Z,6.61
2019-03-18T08:58:13.027Z,6.64
2019-03-18T09:00:44.400Z,6.70
2019-03-18T09:03:15.745Z,6.74
2019-03-18T09:05:47.076Z,6.80
2019-03-18T09:08:18.539Z,6.83
2019-03-18T09:10:49.936Z,6.87
2019-03-18T09:13:22.234Z,6.90
2019-03-18T09:15:53.504Z,6.94
2019-03-18T09:18:25.008Z,6.96
2019-03-18T09:20:56.249Z,7.01
2019-03-18T09:23:27.809Z,7.08
2019-03-18T09:25:59.054Z,7.16
2019-03-18T09:28:30.459Z,7.23
2019-03-18T09:31:01.742Z,7.30
2019-03-18T09:33:33.153Z,7.36
2019-03-18T09:36:05.068Z,7.44
2019-03-18T09:38:36.456Z,7.50
2019-03-18T09:41:11.819Z,7.57
2019-03-18T09:43:43.192Z,7.67
2019-03-18T09:46:14.425Z,7.75
2019-03-18T09:48:45.673Z,7.82
2019-03-18T09:51:16.966Z,7.85
2019-03-18T09:53:48.216Z,7.91
2019-03-18T09:56:19.635Z,7.95
2019-03-18T09:58:50.971Z,8.00
2019-03-18T10:01:27.500Z,8.03
2019-03-18T10:04:02.064Z,8.06
2019-03-18T10:06:34.379Z,8.10
2019-03-18T10:09:08.229Z,8.14
2019-03-18T10:11:39.569Z,8.11
2019-03-18T10:14:11.055Z,8.12
2019-03-18T10:16:42.642Z,8.17
2019-03-18T10:19:14.112Z,8.23
2019-03-18T10:21:45.362Z,8.33
2019-03-18T10:24:16.666Z,8.39
2019-03-18T10:26:47.935Z,8.42
2019-03-18T10:29:19.417Z,8.40
2019-03-18T10:31:50.689Z,8.37
2019-03-18T10:34:22.067Z,8.35
2019-03-18T10:36:53.457Z,8.36
2019-03-18T10:39:24.698Z,8.35
2019-03-18T10:41:56.332Z,8.36
2019-03-18T10:44:27.666Z,8.35
2019-03-18T10:46:58.978Z,8.32
2019-03-18T10:49:30.225Z,8.32
2019-03-18T10:52:01.504Z,8.29
2019-03-18T10:54:33.087Z,8.28
2019-03-18T10:57:07.298Z,8.25
2019-03-18T10:59:38.564Z,8.23
2019-03-18T11:02:09.893Z,8.20
2019-03-18T11:04:41.208Z,8.17
2019-03-18T11:07:12.815Z,8.16
2019-03-18T11:09:44.091Z,8.23
2019-03-18T11:12:15.342Z,8.30
2019-03-18T11:14:46.579Z,8.40
2019-03-18T11:17:17.877Z,8.45
2019-03-18T11:19:58.455Z,8.51
2019-03-18T11:22:23.004Z,8.55
2019-03-18T11:24:54.424Z,8.58
2019-03-18T11:27:26.103Z,8.54
2019-03-18T11:29:57.456Z,8.47
2019-03-18T11:32:31.972Z,8.47
2019-03-18T11:35:03.457Z,8.51
2019-03-18T11:37:34.702Z,8.54
2019-03-18T11:40:06.567Z,8.58
2019-03-18T11:42:38.148Z,8.58
2019-03-18T11:45:10.381Z,8.64
2019-03-18T11:47:42.286Z,8.69
2019-03-18T11:50:16.887Z,8.74
2019-03-18T11:52:48.432Z,8.80
2019-03-18T11:55:20.802Z,8.85
2019-03-18T11:57:52.321Z,8.87
2019-03-18T12:00:23.836Z,8.91
2019-03-18T12:02:55.200Z,8.91
2019-03-18T12:05:26.727Z,8.93
2019-03-18T12:07:58.278Z,8.95
2019-03-18T12:10:29.468Z,8.94
2019-03-18T12:13:00.788Z,8.95
2019-03-18T12:15:32.196Z,8.97
2019-03-18T12:18:03.440Z,8.99
2019-03-18T12:20:35.834Z,9.06
2019-03-18T12:23:07.209Z,9.15
2019-03-18T12:25:38.880Z,9.27
2019-03-18T12:28:11.345Z,9.40
2019-03-18T12:30:43.024Z,9.51
2019-03-18T12:33:15.510Z,9.60
2019-03-18T12:35:46.924Z,9.61
2019-03-18T12:38:18.328Z,9.57
2019-03-18T12:40:49.730Z,9.52
2019-03-18T12:43:21.263Z,9.41
2019-03-18T12:45:52.818Z,9.07
2019-03-18T12:48:24.258Z,8.85
2019-03-18T12:50:56.875Z,8.65
2019-03-18T12:53:28.308Z,8.50
2019-03-18T12:55:59.566Z,8.42
2019-03-18T12:58:30.833Z,8.44
2019-03-18T13:01:12.056Z,8.70
2019-03-18T13:03:35.281Z,9.16
2019-03-18T13:06:07.720Z,9.68
2019-03-18T13:08:39.003Z,10.16
2019-03-18T13:11:10.409Z,10.64
2019-03-18T13:13:41.852Z,11.06
2019-03-18T13:16:13.318Z,11.59
2019-03-18T13:18:44.782Z,12.09
2019-03-18T13:21:16.249Z,12.48
2019-03-18T13:23:48.551Z,12.81
2019-03-18T13:26:19.937Z,13.14
2019-03-18T13:28:51.231Z,13.62
2019-03-18T13:31:24.113Z,14.08
2019-03-18T13:33:55.394Z,14.57
2019-03-18T13:36:26.645Z,14.69
2019-03-18T13:38:57.963Z,15.08
2019-03-18T13:41:29.183Z,15.46
2019-03-18T13:44:00.580Z,15.79
2019-03-18T13:46:31.820Z,15.96
2019-03-18T13:49:03.602Z,16.04
2019-03-18T13:51:34.995Z,16.29
2019-03-18T13:54:06.352Z,16.29
2019-03-18T13:56:37.783Z,16.23
2019-03-18T13:59:09.740Z,16.47
2019-03-18T14:01:41.288Z,16.55
2019-03-18T14:04:12.583Z,16.59
2019-03-18T14:06:43.874Z,16.45
2019-03-18T14:09:18.147Z,16.47
2019-03-18T14:11:49.469Z,16.32
2019-03-18T14:14:20.945Z,16.33
2019-03-18T14:16:52.638Z,15.97
2019-03-18T14:19:25.042Z,15.85
2019-03-18T14:21:56.361Z,15.93
2019-03-18T14:24:27.809Z,16.28
2019-03-18T14:26:59.232Z,16.52
2019-03-18T14:29:30.495Z,15.94
2019-03-18T14:32:01.735Z,15.36
2019-03-18T14:34:33.133Z,14.84
2019-03-18T14:37:04.502Z,14.35
2019-03-18T14:39:35.751Z,13.87
2019-03-18T14:42:07.079Z,13.41
2019-03-18T14:44:38.544Z,12.95
2019-03-18T14:47:10.023Z,12.62
2019-03-18T14:49:41.536Z,12.32
2019-03-18T14:52:12.879Z,12.01
2019-03-18T14:54:44.417Z,11.80
2019-03-18T14:57:16.905Z,11.60
2019-03-18T14:59:48.680Z,11.37
2019-03-18T15:02:19.937Z,11.20
2019-03-18T15:04:51.333Z,11.21
2019-03-18T15:07:23.383Z,11.30
2019-03-18T15:09:54.827Z,11.53
2019-03-18T15:12:26.313Z,11.86
2019-03-18T15:15:01.966Z,12.22
2019-03-18T15:17:33.310Z,12.50
2019-03-18T15:20:05.111Z,12.57
2019-03-18T15:22:36.416Z,12.47
2019-03-18T15:25:11.209Z,12.30
2019-03-18T15:27:42.500Z,12.28
2019-03-18T15:30:16.557Z,12.24
2019-03-18T15:32:47.868Z,12.16
2019-03-18T15:35:19.292Z,12.07
2019-03-18T15:37:51.395Z,11.89
2019-03-18T15:40:22.733Z,11.72
2019-03-18T15:42:55.404Z,11.64
2019-03-18T15:45:26.826Z,11.71
2019-03-18T15:47:58.326Z,11.77
2019-03-18T15:50:30.899Z,11.73
2019-03-18T15:53:02.356Z,11.62
2019-03-18T15:55:33.721Z,11.52
2019-03-18T15:58:05.164Z,11.41
2019-03-18T16:00:36.754Z,11.35
2019-03-18T16:03:08.280Z,11.33
2019-03-18T16:05:39.781Z,11.18
2019-03-18T16:08:11.512Z,10.94
2019-03-18T16:10:44.379Z,10.66
2019-03-18T16:13:15.974Z,10.38
2019-03-18T16:15:47.501Z,10.07
2019-03-18T16:18:18.818Z,9.80
2019-03-18T16:20:50.160Z,9.58
2019-03-18T16:23:21.571Z,9.42
2019-03-18T16:25:53.185Z,9.23
2019-03-18T16:28:24.604Z,9.06
2019-03-18T16:30:55.953Z,8.92
2019-03-18T16:33:28.625Z,8.77
2019-03-18T16:36:00.256Z,8.67
2019-03-18T16:38:31.677Z,8.57
2019-03-18T16:41:03.087Z,8.51
2019-03-18T16:43:35.567Z,8.27
2019-03-18T16:46:07.107Z,7.94
2019-03-18T16:48:38.603Z,7.65
2019-03-18T16:51:11.305Z,7.38
2019-03-18T16:53:46.469Z,7.21
2019-03-18T16:56:22.935Z,7.06
2019-03-18T16:58:56.427Z,6.96
2019-03-18T17:01:28.728Z,6.90
2019-03-18T17:04:00.613Z,6.87
2019-03-18T17:06:32.943Z,6.81
2019-03-18T17:09:05.834Z,6.78
2019-03-18T17:11:37.905Z,6.75
2019-03-18T17:14:09.188Z,6.70
2019-03-18T17:16:40.489Z,6.67
2019-03-18T17:19:11.935Z,6.62
2019-03-18T17:21:43.254Z,6.58
2019-03-18T17:24:14.445Z,6.54
2019-03-18T17:26:45.736Z,6.48
2019-03-18T17:29:17.035Z,6.42
2019-03-18T17:31:48.316Z,6.38
2019-03-18T17:34:19.546Z,6.35
2019-03-18T17:36:51.018Z,6.32
2019-03-18T17:39:22.629Z,6.29
2019-03-18T17:41:54.018Z,6.21
2019-03-18T17:44:25.483Z,6.14
2019-03-18T17:46:57.159Z,6.10
2019-03-18T17:49:29.204Z,6.06
2019-03-18T17:52:01.781Z,5.99
2019-03-18T17:54:33.860Z,5.97
2019-03-18T17:57:07.383Z,5.96
2019-03-18T17:59:39.652Z,5.95
2019-03-18T18:02:10.989Z,5.93
2019-03-18T18:04:42.259Z,5.89
2019-03-18T18:07:15.412Z,5.87
2019-03-18T18:09:48.502Z,5.85
2019-03-18T18:12:19.804Z,5.83
2019-03-18T18:14:51.290Z,5.83
2019-03-18T18:17:22.756Z,5.85
2019-03-18T18:19:54.127Z,5.85
2019-03-18T18:22:25.834Z,5.85
2019-03-18T18:24:57.095Z,5.83
2019-03-18T18:27:30.348Z,5.82
2019-03-18T18:30:03.470Z,5.81
2019-03-18T18:32:35.514Z,5.80
2019-03-18T18:35:08.157Z,5.79
2019-03-18T18:37:39.510Z,5.78
2019-03-18T18:40:11.830Z,5.78
2019-03-18T18:42:43.388Z,5.77
2019-03-18T18:45:14.725Z,5.73
2019-03-18T18:47:46.116Z,5.70
2019-03-18T18:50:17.540Z,5.68
2019-03-18T18:52:48.946Z,5.64
2019-03-18T18:55:21.432Z,5.61
2019-03-18T18:57:52.843Z,5.59
2019-03-18T19:00:24.412Z,5.58
2019-03-18T19:02:55.879Z,5.60
2019-03-18T19:05:27.099Z,5.60
2019-03-18T19:07:58.449Z,5.62
2019-03-18T19:10:29.731Z,5.62
2019-03-18T19:13:01.025Z,5.63
2019-03-18T19:15:32.471Z,5.65
2019-03-18T19:18:03.860Z,5.65
2019-03-18T19:20:35.613Z,5.66
2019-03-18T19:23:06.965Z,5.68
2019-03-18T19:25:38.173Z,5.70
2019-03-18T19:28:09.698Z,5.71
2019-03-18T19:30:41.107Z,5.71
2019-03-18T19:33:12.515Z,5.71
2019-03-18T19:35:43.871Z,5.73
2019-03-18T19:38:15.323Z,5.73
2019-03-18T19:40:46.689Z,5.72
2019-03-18T19:43:18.002Z,5.71
2019-03-18T19:45:49.469Z,5.71
2019-03-18T19:48:20.844Z,5.73
2019-03-18T19:50:52.209Z,5.72
2019-03-18T19:53:24.928Z,5.70
2019-03-18T19:55:56.600Z,5.67
2019-03-18T19:58:31.120Z,5.62
2019-03-18T20:01:02.567Z,5.60
2019-03-18T20:03:33.926Z,5.58
2019-03-18T20:06:05.487Z,5.55
2019-03-18T20:08:36.769Z,5.53
2019-03-18T20:11:08.033Z,5.53
2019-03-18T20:13:39.541Z,5.53
2019-03-18T20:16:10.785Z,5.53
2019-03-18T20:18:42.128Z,5.53
2019-03-18T20:21:13.347Z,5.52
2019-03-18T20:23:44.606Z,5.49
2019-03-18T20:26:15.872Z,5.49
2019-03-18T20:28:47.177Z,5.50
2019-03-18T20:31:25.677Z,5.51
2019-03-18T20:33:51.665Z,5.50
2019-03-18T20:36:22.968Z,5.47
2019-03-18T20:38:54.559Z,5.45
2019-03-18T20:41:26.222Z,5.46
2019-03-18T20:43:57.734Z,5.44
2019-03-18T20:46:29.301Z,5.45
2019-03-18T20:49:01.063Z,5.45
2019-03-18T20:51:32.496Z,5.44
2019-03-18T20:54:11.676Z,5.43
2019-03-18T20:56:36.945Z,5.41
2019-03-18T20:59:08.318Z,5.39
2019-03-18T21:01:39.656Z,5.38
2019-03-18T21:04:12.232Z,5.34
2019-03-18T21:06:43.611Z,5.31
2019-03-18T21:09:15.031Z,5.27
2019-03-18T21:11:46.854Z,5.24
2019-03-18T21:14:18.619Z,5.21
2019-03-18T21:16:54.857Z,5.19
2019-03-18T21:19:33.266Z,5.18
2019-03-18T21:22:04.606Z,5.16
2019-03-18T21:24:35.931Z,5.16
2019-03-18T21:27:07.189Z,5.17
2019-03-18T21:29:43.921Z,5.17
2019-03-18T21:32:16.075Z,5.18
2019-03-18T21:34:47.545Z,5.20
2019-03-18T21:37:18.870Z,5.20
2019-03-18T21:39:50.824Z,5.21
2019-03-18T21:42:22.507Z,5.22
2019-03-18T21:44:53.867Z,5.22
2019-03-18T21:47:25.177Z,5.19
2019-03-18T21:49:56.438Z,5.16
2019-03-18T21:52:27.858Z,5.16
2019-03-18T21:55:00.534Z,5.15
2019-03-18T21:57:31.909Z,5.16
2019-03-18T22:00:03.712Z,5.16
2019-03-18T22:02:35.041Z,5.12
2019-03-18T22:05:06.817Z,5.08
2019-03-18T22:07:38.020Z,5.05
2019-03-18T22:10:11.259Z,5.04
2019-03-18T22:12:42.749Z,4.99
2019-03-18T22:15:14.406Z,4.96
2019-03-18T22:17:46.986Z,4.94
2019-03-18T22:20:18.645Z,4.92
2019-03-18T22:22:53.053Z,4.89
2019-03-18T22:25:27.004Z,4.88
2019-03-18T22:27:58.278Z,4.86
2019-03-18T22:30:29.894Z,4.84
2019-03-18T22:33:01.578Z,4.83
2019-03-18T22:35:32.893Z,4.83
2019-03-18T22:38:05.486Z,4.83
2019-03-18T22:40:36.938Z,4.80
2019-03-18T22:43:08.645Z,4.79
2019-03-18T22:45:39.931Z,4.80
2019-03-18T22:48:11.288Z,4.82
2019-03-18T22:50:43.173Z,4.85
2019-03-18T22:53:14.959Z,4.87
2019-03-18T22:55:46.477Z,4.88
2019-03-18T22:58:19.423Z,4.91
2019-03-18T23:00:52.866Z,4.92
2019-03-18T23:03:25.739Z,4.91
2019-03-18T23:05:56.982Z,4.92
2019-03-18T23:08:28.290Z,4.90
2019-03-18T23:10:59.717Z,4.89
2019-03-18T23:13:31.010Z,4.89
2019-03-18T23:16:02.331Z,4.90
2019-03-18T23:18:33.670Z,4.92
2019-03-18T23:21:04.941Z,4.92
2019-03-18T23:23:36.346Z,4.92
2019-03-18T23:26:07.848Z,4.91
2019-03-18T23:28:39.579Z,4.89
2019-03-18T23:31:10.857Z,4.87
2019-03-18T23:33:42.152Z,4.85
2019-03-18T23:36:13.389Z,4.82
2019-03-18T23:38:44.923Z,4.80
2019-03-18T23:41:16.667Z,4.79
2019-03-18T23:43:47.970Z,4.80
2019-03-18T23:46:20.228Z,4.79
2019-03-18T23:48:51.465Z,4.77
2019-03-18T23:51:22.752Z,4.75
2019-03-18T23:53:54.000Z,4.70
2019-03-18T23:56:25.309Z,4.67
2019-03-18T23:58:56.549Z,4.60
